Time;durP1;ratioP1;P1;durP2;ratioP2;P2;SDS_P1;SDS_P2;PMS_P1;PMS_P2;Temp;Humidity;BMP_temperature;BMP_pressure;BME280_temperature;BME280_humidity;BME280_pressure;Samples;Min_cycle;Max_cycle;Signal;HPM_P1;HPM_P2
2023/12/28 00:01:15;;;;;;;5.25;1.55;;;;;;;;;;5156082;27;20358;-75
2023/12/28 00:03:42;;;;;;;6.55;1.83;;;;;;;;;;5116071;27;20100;-75
2023/12/28 00:06:08;;;;;;;3.50;1.63;;;;;;;;;;5133855;27;20099;-74
2023/12/28 00:08:34;;;;;;;6.33;1.77;;;;;;;;;;5134811;27;20043;-74
2023/12/28 00:11:00;;;;;;;7.18;2.05;;;;;;;;;;5134232;27;20522;-75
2023/12/28 00:13:26;;;;;;;6.03;1.80;;;;;;;;;;5134010;27;20058;-74
2023/12/28 00:15:52;;;;;;;5.78;1.98;;;;;;;;;;5116556;27;20039;-74
2023/12/28 00:18:18;;;;;;;8.85;2.50;;;;;;;;;;5134606;27;20043;-74
2023/12/28 00:20:44;;;;;;;3.65;1.58;;;;;;;;;;5116534;27;20047;-76
2023/12/28 00:23:10;;;;;;;5.63;2.25;;;;;;;;;;5133476;27;20090;-76
2023/12/28 00:25:36;;;;;;;4.05;1.77;;;;;;;;;;5133330;28;20042;-75
2023/12/28 00:28:03;;;;;;;5.00;1.75;;;;;;;;;;5133949;28;20051;-73
2023/12/28 00:30:29;;;;;;;5.20;1.90;;;;;;;;;;5134743;28;20058;-75
2023/12/28 00:32:55;;;;;;;4.85;2.05;;;;;;;;;;5134267;28;20104;-76
2023/12/28 00:35:21;;;;;;;4.07;1.52;;;;;;;;;;5116399;28;20436;-76
2023/12/28 00:37:48;;;;;;;4.70;1.85;;;;;;;;;;5134486;28;20043;-76
2023/12/28 00:40:14;;;;;;;7.35;2.00;;;;;;;;;;5134276;27;20051;-76
2023/12/28 00:42:41;;;;;;;5.68;1.80;;;;;;;;;;5133559;28;20109;-75
2023/12/28 00:45:07;;;;;;;3.80;1.50;;;;;;;;;;5133475;28;20382;-75
2023/12/28 00:47:34;;;;;;;6.47;2.25;;;;;;;;;;5133233;28;20047;-76
2023/12/28 00:50:00;;;;;;;8.43;2.08;;;;;;;;;;5133047;28;20092;-75
2023/12/28 00:52:26;;;;;;;6.57;1.90;;;;;;;;;;5133222;28;20130;-75
2023/12/28 00:54:52;;;;;;;4.50;2.25;;;;;;;;;;5134214;28;20162;-75
2023/12/28 00:57:18;;;;;;;4.75;2.03;;;;;;;;;;5132579;28;20043;-74
2023/12/28 00:59:44;;;;;;;5.97;1.90;;;;;;;;;;5133458;28;20043;-74
2023/12/28 01:02:10;;;;;;;7.28;2.00;;;;;;;;;;5136314;27;20046;-75
2023/12/28 01:04:36;;;;;;;3.90;1.80;;;;;;;;;;5119959;27;20046;-75
2023/12/28 01:07:05;;;;;;;4.65;1.90;;;;;;;;;;5136493;27;20057;-74
2023/12/28 01:09:35;;;;;;;4.95;2.08;;;;;;;;;;5136936;27;20394;-75
2023/12/28 01:12:01;;;;;;;5.78;2.03;;;;;;;;;;5136343;27;20474;-76
2023/12/28 01:14:27;;;;;;;4.80;1.88;;;;;;;;;;5136796;27;20076;-76
2023/12/28 01:16:53;;;;;;;5.80;2.00;;;;;;;;;;5154735;27;20086;-75
2023/12/28 01:19:19;;;;;;;4.27;1.93;;;;;;;;;;5120048;27;20129;-76
2023/12/28 01:21:45;;;;;;;6.90;2.03;;;;;;;;;;5154956;27;20039;-75
2023/12/28 01:24:11;;;;;;;4.82;1.83;;;;;;;;;;5136177;27;20439;-75
2023/12/28 01:26:37;;;;;;;4.97;2.00;;;;;;;;;;5136371;27;20039;-75
2023/12/28 01:29:04;;;;;;;6.70;2.13;;;;;;;;;;5119242;27;20043;-76
2023/12/28 01:31:30;;;;;;;6.22;2.30;;;;;;;;;;5138535;27;20047;-75
2023/12/28 01:33:56;;;;;;;6.07;2.30;;;;;;;;;;5140548;27;20043;-75
2023/12/28 01:36:23;;;;;;;8.15;2.05;;;;;;;;;;5105954;27;20106;-75
2023/12/28 01:38:49;;;;;;;6.03;2.10;;;;;;;;;;5122833;27;20421;-74
2023/12/28 01:41:15;;;;;;;6.05;2.15;;;;;;;;;;5139557;27;20383;-75
2023/12/28 01:43:42;;;;;;;6.13;2.50;;;;;;;;;;5106642;27;20133;-75
2023/12/28 01:46:11;;;;;;;7.43;2.10;;;;;;;;;;5139913;27;20142;-75
2023/12/28 01:48:37;;;;;;;5.18;1.90;;;;;;;;;;5158081;27;20043;-74
2023/12/28 01:51:04;;;;;;;6.25;2.35;;;;;;;;;;5140152;27;20047;-75
2023/12/28 01:53:30;;;;;;;6.63;2.20;;;;;;;;;;5122621;27;20096;-75
2023/12/28 01:55:56;;;;;;;6.45;2.20;;;;;;;;;;5139670;27;20103;-75
2023/12/28 01:58:23;;;;;;;6.23;2.40;;;;;;;;;;5139609;27;20046;-74
2023/12/28 02:00:49;;;;;;;6.93;2.58;;;;;;;;;;5140282;27;20042;-75
2023/12/28 02:03:16;;;;;;;7.45;2.33;;;;;;;;;;5135806;27;20051;-74
2023/12/28 02:05:42;;;;;;;4.87;2.07;;;;;;;;;;5136336;27;20102;-75
2023/12/28 02:08:08;;;;;;;8.13;2.60;;;;;;;;;;5119727;27;20054;-75
2023/12/28 02:10:34;;;;;;;8.00;2.63;;;;;;;;;;5118787;27;20043;-76
2023/12/28 02:13:00;;;;;;;7.82;2.35;;;;;;;;;;5136084;27;20043;-75
2023/12/28 02:15:26;;;;;;;8.90;2.40;;;;;;;;;;5136478;27;20100;-75
2023/12/28 02:17:59;;;;;;;8.20;2.63;;;;;;;;;;5135615;27;20494;-76
2023/12/28 02:20:26;;;;;;;6.72;2.38;;;;;;;;;;5136825;27;20057;-76
2023/12/28 02:22:52;;;;;;;12.02;2.22;;;;;;;;;;5136498;27;20378;-76
2023/12/28 02:25:18;;;;;;;6.78;2.20;;;;;;;;;;5136603;27;20054;-76
2023/12/28 02:27:48;;;;;;;8.40;2.22;;;;;;;;;;5101521;27;20425;-76
2023/12/28 02:30:17;;;;;;;9.13;2.53;;;;;;;;;;5135361;27;20090;-76
2023/12/28 02:33:01;;;;;;;11.82;2.38;;;;;;;;;;5135513;27;20452;-74
2023/12/28 02:35:40;;;;;;;6.20;2.50;;;;;;;;;;5135558;27;20204;-75
2023/12/28 02:38:09;;;;;;;10.27;1.95;;;;;;;;;;5135350;27;20050;-76
2023/12/28 02:40:39;;;;;;;9.10;2.58;;;;;;;;;;5118502;27;20058;-74
2023/12/28 02:43:09;;;;;;;9.23;2.42;;;;;;;;;;5134442;27;20043;-76
2023/12/28 02:45:35;;;;;;;9.73;2.67;;;;;;;;;;5118562;27;20133;-75
2023/12/28 02:48:01;;;;;;;7.40;2.27;;;;;;;;;;5136424;27;20043;-76
2023/12/28 02:50:30;;;;;;;5.90;1.80;;;;;;;;;;5118052;27;20288;-76
2023/12/28 02:52:56;;;;;;;8.02;2.33;;;;;;;;;;5135224;27;20587;-74
2023/12/28 02:55:22;;;;;;;6.23;2.60;;;;;;;;;;5137034;27;20051;-73
2023/12/28 02:57:50;;;;;;;8.50;2.08;;;;;;;;;;5125881;27;20047;-75
2023/12/28 03:00:16;;;;;;;;;;;;;;;;;;5120805;27;20046;-76
2023/12/28 03:02:42;;;;;;;7.60;2.13;;;;;;;;;;5134351;27;19948;-75
2023/12/28 03:05:08;;;;;;;6.35;2.00;;;;;;;;;;5117950;27;20062;-75
2023/12/28 03:07:35;;;;;;;9.60;2.17;;;;;;;;;;5134888;27;20047;-76
2023/12/28 03:10:01;;;;;;;8.83;1.67;;;;;;;;;;5134520;27;20499;-76
2023/12/28 03:12:28;;;;;;;7.77;2.10;;;;;;;;;;5117644;27;20285;-76
2023/12/28 03:14:54;;;;;;;8.30;1.92;;;;;;;;;;5135679;27;20079;-76
2023/12/28 03:17:20;;;;;;;6.50;1.73;;;;;;;;;;5134451;27;20096;-76
2023/12/28 03:19:46;;;;;;;9.02;1.83;;;;;;;;;;5135528;27;20051;-75
2023/12/28 03:22:12;;;;;;;6.40;1.50;;;;;;;;;;5134347;27;20046;-75
2023/12/28 03:24:39;;;;;;;4.80;1.25;;;;;;;;;;5117302;27;20502;-73
2023/12/28 03:27:05;;;;;;;6.05;1.40;;;;;;;;;;5135378;27;20138;-75
2023/12/28 03:29:31;;;;;;;7.50;1.40;;;;;;;;;;5118092;27;20054;-74
2023/12/28 03:31:58;;;;;;;5.10;1.48;;;;;;;;;;5134312;27;20099;-74
2023/12/28 03:34:26;;;;;;;;;;;;;;;;;;5117764;27;20050;-74
2023/12/28 03:36:52;;;;;;;6.22;1.42;;;;;;;;;;5117250;27;19945;-75
2023/12/28 03:39:19;;;;;;;8.98;1.67;;;;;;;;;;5135246;27;20058;-75
2023/12/28 03:41:45;;;;;;;6.97;1.73;;;;;;;;;;5134776;27;20043;-74
2023/12/28 03:44:11;;;;;;;4.93;1.20;;;;;;;;;;5133997;27;20391;-74
2023/12/28 03:46:37;;;;;;;6.13;1.40;;;;;;;;;;5117036;27;20115;-73
2023/12/28 03:49:03;;;;;;;10.57;1.70;;;;;;;;;;5100137;27;20051;-74
2023/12/28 03:51:29;;;;;;;7.45;1.38;;;;;;;;;;5135011;27;20059;-74
2023/12/28 03:53:55;;;;;;;6.57;1.48;;;;;;;;;;5133310;27;20126;-74
2023/12/28 03:56:22;;;;;;;5.03;1.20;;;;;;;;;;5133751;27;20066;-76
2023/12/28 03:58:49;;;;;;;9.27;1.35;;;;;;;;;;5117103;27;20154;-74
2023/12/28 04:01:15;;;;;;;4.90;1.00;;;;;;;;;;5118430;27;20130;-74
2023/12/28 04:03:41;;;;;;;6.13;1.25;;;;;;;;;;5117892;27;20115;-74
2023/12/28 04:06:07;;;;;;;6.57;1.17;;;;;;;;;;5136067;27;20404;-75
2023/12/28 04:08:33;;;;;;;6.22;1.20;;;;;;;;;;5135445;27;20137;-74
2023/12/28 04:10:59;;;;;;;4.30;1.10;;;;;;;;;;5135197;27;20084;-73
2023/12/28 04:13:25;;;;;;;5.53;0.90;;;;;;;;;;5134971;27;20054;-74
2023/12/28 04:15:51;;;;;;;6.95;1.10;;;;;;;;;;5135048;27;20043;-75
2023/12/28 04:18:17;;;;;;;5.25;1.23;;;;;;;;;;5134184;27;20054;-77
2023/12/28 04:20:46;;;;;;;8.23;1.38;;;;;;;;;;5134178;27;20039;-75
2023/12/28 04:23:12;;;;;;;12.00;1.40;;;;;;;;;;5117854;27;20051;-74
2023/12/28 04:25:38;;;;;;;5.40;1.02;;;;;;;;;;5133560;27;20051;-76
2023/12/28 04:28:04;;;;;;;6.10;1.10;;;;;;;;;;5117138;28;20445;-74
2023/12/28 04:30:31;;;;;;;7.93;1.30;;;;;;;;;;5133976;27;20076;-75
2023/12/28 04:32:57;;;;;;;11.60;0.90;;;;;;;;;;5116436;28;20082;-73
2023/12/28 04:35:23;;;;;;;6.40;1.17;;;;;;;;;;5133278;28;20057;-75
2023/12/28 04:37:49;;;;;;;5.85;1.08;;;;;;;;;;5133438;28;20494;-75
2023/12/28 04:40:16;;;;;;;9.45;1.23;;;;;;;;;;5134418;28;20047;-73
2023/12/28 04:42:42;;;;;;;10.25;1.10;;;;;;;;;;5133284;28;20433;-74
2023/12/28 04:45:10;;;;;;;9.65;1.40;;;;;;;;;;5133142;28;20054;-73
2023/12/28 04:47:36;;;;;;;7.85;1.00;;;;;;;;;;5134154;28;20062;-75
2023/12/28 04:50:03;;;;;;;9.32;1.05;;;;;;;;;;5116663;28;20066;-74
2023/12/28 04:52:29;;;;;;;9.20;1.20;;;;;;;;;;5134361;28;20092;-75
2023/12/28 04:54:55;;;;;;;5.85;1.05;;;;;;;;;;5134651;28;20053;-75
2023/12/28 04:57:24;;;;;;;10.10;1.92;;;;;;;;;;5134097;28;20050;-74
2023/12/28 04:59:50;;;;;;;9.38;1.10;;;;;;;;;;5133175;28;20051;-74
2023/12/28 05:02:16;;;;;;;6.38;0.93;;;;;;;;;;5133871;27;20046;-74
2023/12/28 05:04:42;;;;;;;4.93;0.83;;;;;;;;;;5136525;27;20508;-77
2023/12/28 05:07:08;;;;;;;7.07;0.80;;;;;;;;;;5122816;27;20293;-76
2023/12/28 05:09:35;;;;;;;7.88;1.40;;;;;;;;;;5106484;27;20050;-75
2023/12/28 05:12:01;;;;;;;6.47;1.35;;;;;;;;;;5124115;27;20494;-75
2023/12/28 05:14:27;;;;;;;9.57;1.23;;;;;;;;;;5123415;27;20129;-74
2023/12/28 05:16:53;;;;;;;7.82;1.00;;;;;;;;;;5140716;27;20047;-76
2023/12/28 05:19:19;;;;;;;8.30;1.30;;;;;;;;;;5140629;27;20119;-74
2023/12/28 05:21:46;;;;;;;8.68;1.27;;;;;;;;;;5141441;27;20038;-74
2023/12/28 05:24:12;;;;;;;9.52;1.30;;;;;;;;;;5141443;27;20095;-75
2023/12/28 05:26:38;;;;;;;7.70;1.23;;;;;;;;;;5141835;27;20549;-75
2023/12/28 05:29:04;;;;;;;7.35;1.33;;;;;;;;;;5140306;27;20042;-74
2023/12/28 05:31:30;;;;;;;7.80;1.27;;;;;;;;;;5158994;27;20083;-74
2023/12/28 05:33:58;;;;;;;9.15;0.93;;;;;;;;;;5140142;27;20390;-75
2023/12/28 05:36:24;;;;;;;9.63;1.30;;;;;;;;;;5140140;27;20098;-73
2023/12/28 05:38:50;;;;;;;9.07;0.95;;;;;;;;;;5140032;27;20137;-74
2023/12/28 05:41:16;;;;;;;11.93;1.60;;;;;;;;;;5122369;27;20042;-74
2023/12/28 05:43:42;;;;;;;11.10;1.13;;;;;;;;;;5122901;27;20083;-75
2023/12/28 05:46:09;;;;;;;8.27;0.90;;;;;;;;;;5122884;27;20079;-74
2023/12/28 05:48:35;;;;;;;10.57;1.50;;;;;;;;;;5122927;27;20052;-76
2023/12/28 05:51:01;;;;;;;9.55;1.55;;;;;;;;;;5139573;27;20060;-75
2023/12/28 05:53:29;;;;;;;10.88;1.38;;;;;;;;;;5106547;27;20050;-74
2023/12/28 05:55:55;;;;;;;13.82;1.35;;;;;;;;;;5140013;27;20390;-74
2023/12/28 05:58:21;;;;;;;5.43;0.85;;;;;;;;;;5139823;27;20386;-75
2023/12/28 06:00:48;;;;;;;8.32;1.10;;;;;;;;;;5157920;27;20049;-75
2023/12/28 06:03:14;;;;;;;8.10;1.00;;;;;;;;;;5139753;27;20074;-73
2023/12/28 06:05:40;;;;;;;8.10;1.25;;;;;;;;;;5139261;27;20086;-73
2023/12/28 06:08:07;;;;;;;12.40;1.20;;;;;;;;;;5157915;27;20042;-76
2023/12/28 06:10:33;;;;;;;9.52;1.65;;;;;;;;;;5139566;27;20130;-75
2023/12/28 06:12:59;;;;;;;10.75;1.33;;;;;;;;;;5139294;27;20500;-74
2023/12/28 06:15:25;;;;;;;8.38;0.88;;;;;;;;;;5122401;27;20499;-73
2023/12/28 06:17:51;;;;;;;9.35;1.00;;;;;;;;;;5156526;27;20070;-74
2023/12/28 06:20:19;;;;;;;13.38;1.65;;;;;;;;;;5139340;27;20513;-75
2023/12/28 06:22:48;;;;;;;9.95;1.17;;;;;;;;;;5139111;27;20554;-76
2023/12/28 06:25:14;;;;;;;9.93;1.13;;;;;;;;;;5122946;27;20042;-75
2023/12/28 06:27:41;;;;;;;10.45;0.80;;;;;;;;;;5123151;27;20047;-74
2023/12/28 06:30:07;;;;;;;11.17;1.20;;;;;;;;;;5123601;27;20375;-74
2023/12/28 06:32:33;;;;;;;13.90;0.93;;;;;;;;;;5123241;27;20295;-75
2023/12/28 06:34:59;;;;;;;11.63;1.02;;;;;;;;;;5122353;27;20280;-74
2023/12/28 06:37:25;;;;;;;10.32;1.00;;;;;;;;;;5157636;27;20046;-75
2023/12/28 06:39:52;;;;;;;8.93;1.00;;;;;;;;;;5122240;27;20043;-74
2023/12/28 06:42:18;;;;;;;13.13;1.35;;;;;;;;;;5157239;27;20099;-73
2023/12/28 06:44:44;;;;;;;5.20;0.70;;;;;;;;;;5158123;27;20363;-74
2023/12/28 06:47:10;;;;;;;9.95;1.50;;;;;;;;;;5122023;27;20058;-74
2023/12/28 06:49:36;;;;;;;8.63;0.95;;;;;;;;;;5138442;27;20070;-72
2023/12/28 06:52:02;;;;;;;15.00;1.77;;;;;;;;;;5138564;27;20391;-73
2023/12/28 06:54:28;;;;;;;10.68;0.95;;;;;;;;;;5139173;27;20047;-74
2023/12/28 06:56:54;;;;;;;11.52;1.10;;;;;;;;;;5138592;27;20047;-73
2023/12/28 06:59:21;;;;;;;11.52;1.00;;;;;;;;;;5156888;27;20381;-74
2023/12/28 07:01:49;;;;;;;9.52;1.13;;;;;;;;;;5122105;27;20081;-73
2023/12/28 07:04:15;;;;;;;9.30;0.90;;;;;;;;;;5138542;27;20054;-72
2023/12/28 07:06:42;;;;;;;11.57;1.05;;;;;;;;;;5137976;27;20058;-73
2023/12/28 07:09:08;;;;;;;8.68;1.30;;;;;;;;;;5156714;27;20095;-75
2023/12/28 07:11:34;;;;;;;11.48;1.23;;;;;;;;;;5138678;27;20137;-74
2023/12/28 07:14:00;;;;;;;12.55;0.98;;;;;;;;;;5137888;27;20539;-75
2023/12/28 07:16:26;;;;;;;11.23;1.00;;;;;;;;;;5138133;27;20087;-73
2023/12/28 07:18:53;;;;;;;10.75;0.95;;;;;;;;;;5121053;27;20043;-74
2023/12/28 07:21:19;;;;;;;9.57;1.02;;;;;;;;;;5120698;27;20547;-73
2023/12/28 07:23:49;;;;;;;8.90;0.98;;;;;;;;;;5121072;27;20035;-74
2023/12/28 07:26:15;;;;;;;11.07;1.10;;;;;;;;;;5156102;27;20046;-73
2023/12/28 07:28:43;;;;;;;13.93;1.27;;;;;;;;;;5137996;27;20114;-73
2023/12/28 07:31:09;;;;;;;13.27;1.20;;;;;;;;;;5137337;27;20509;-74
2023/12/28 07:33:35;;;;;;;10.45;1.23;;;;;;;;;;5121077;27;20425;-74
2023/12/28 07:36:06;;;;;;;12.98;0.95;;;;;;;;;;5156163;27;20053;-72
2023/12/28 07:38:32;;;;;;;14.80;2.28;;;;;;;;;;5138659;27;20051;-73
2023/12/28 07:40:58;;;;;;;9.07;1.33;;;;;;;;;;5120647;27;20443;-73
2023/12/28 07:43:24;;;;;;;16.40;1.23;;;;;;;;;;5138725;27;20049;-72
2023/12/28 07:45:50;;;;;;;14.65;1.52;;;;;;;;;;5156524;27;20367;-74
2023/12/28 07:48:16;;;;;;;20.58;1.80;;;;;;;;;;5103973;27;20043;-73
2023/12/28 07:50:43;;;;;;;11.57;0.90;;;;;;;;;;5137492;27;20053;-74
2023/12/28 07:53:09;;;;;;;12.20;1.92;;;;;;;;;;5138281;27;20047;-74
2023/12/28 07:55:35;;;;;;;11.00;1.10;;;;;;;;;;5103133;27;20423;-72
2023/12/28 07:58:01;;;;;;;12.50;1.33;;;;;;;;;;5155569;27;20064;-73
2023/12/28 08:00:27;;;;;;;12.95;1.25;;;;;;;;;;5137396;27;20095;-73
2023/12/28 08:02:53;;;;;;;13.32;1.55;;;;;;;;;;5120023;27;20066;-73
2023/12/28 08:05:19;;;;;;;12.38;1.63;;;;;;;;;;5120003;27;20100;-73
2023/12/28 08:07:45;;;;;;;10.90;1.77;;;;;;;;;;5102947;27;20095;-74
2023/12/28 08:10:11;;;;;;;19.55;1.60;;;;;;;;;;5156129;27;20046;-74
2023/12/28 08:12:37;;;;;;;14.73;2.13;;;;;;;;;;5155463;27;20107;-73
2023/12/28 08:15:04;;;;;;;12.07;1.23;;;;;;;;;;5119874;27;20058;-73
2023/12/28 08:17:30;;;;;;;14.20;1.40;;;;;;;;;;5137862;27;20483;-74
2023/12/28 08:19:56;;;;;;;15.02;1.48;;;;;;;;;;5137776;27;20308;-74
2023/12/28 08:22:22;;;;;;;11.63;1.42;;;;;;;;;;5136795;27;20034;-75
2023/12/28 08:24:48;;;;;;;16.90;1.70;;;;;;;;;;5155040;27;20053;-74
2023/12/28 08:27:14;;;;;;;14.40;1.15;;;;;;;;;;5155154;27;20072;-75
2023/12/28 08:29:42;;;;;;;14.18;2.28;;;;;;;;;;5154846;27;20509;-74
2023/12/28 08:32:07;;;;;;;;;;;;;;;;;;5155380;27;20054;-73
2023/12/28 08:34:34;;;;;;;9.87;1.20;;;;;;;;;;5136749;27;19923;-73
2023/12/28 08:37:00;;;;;;;13.77;1.20;;;;;;;;;;5120544;27;20054;-72
2023/12/28 08:39:26;;;;;;;19.13;1.40;;;;;;;;;;5154944;27;20054;-74
2023/12/28 08:41:52;;;;;;;17.00;2.05;;;;;;;;;;5157438;27;20046;-73
2023/12/28 08:44:18;;;;;;;12.30;1.23;;;;;;;;;;5123443;27;20043;-73
2023/12/28 08:46:44;;;;;;;16.90;1.80;;;;;;;;;;5124379;27;20046;-73
2023/12/28 08:49:10;;;;;;;14.00;1.70;;;;;;;;;;5123613;27;20043;-74
2023/12/28 08:51:36;;;;;;;17.42;2.33;;;;;;;;;;5140447;27;20050;-73
2023/12/28 08:54:02;;;;;;;17.33;1.63;;;;;;;;;;5140459;27;20049;-75
2023/12/28 08:56:29;;;;;;;15.52;1.35;;;;;;;;;;5159045;27;20158;-73
2023/12/28 08:58:55;;;;;;;15.05;1.23;;;;;;;;;;5159162;27;20062;-74
2023/12/28 09:01:22;;;;;;;13.07;0.93;;;;;;;;;;5140038;27;20125;-74
2023/12/28 09:03:49;;;;;;;19.80;2.00;;;;;;;;;;5122332;27;20095;-73
2023/12/28 09:06:17;;;;;;;17.98;1.60;;;;;;;;;;5123450;27;20042;-74
2023/12/28 09:08:43;;;;;;;12.93;1.30;;;;;;;;;;5123720;27;20054;-74
2023/12/28 09:11:12;;;;;;;17.95;1.52;;;;;;;;;;5158337;27;20095;-76
2023/12/28 09:13:39;;;;;;;11.43;1.88;;;;;;;;;;5139982;27;20046;-72
2023/12/28 09:16:06;;;;;;;13.90;1.70;;;;;;;;;;5139838;27;20138;-73
2023/12/28 09:18:32;;;;;;;10.43;1.38;;;;;;;;;;5139462;27;20058;-76
2023/12/28 09:20:58;;;;;;;16.30;2.35;;;;;;;;;;5139695;27;20039;-76
2023/12/28 09:23:24;;;;;;;18.42;1.83;;;;;;;;;;5139700;27;20050;-73
2023/12/28 09:25:50;;;;;;;9.90;1.10;;;;;;;;;;5139824;27;20092;-72
2023/12/28 09:28:16;;;;;;;13.82;1.20;;;;;;;;;;5158176;27;20051;-72
2023/12/28 09:30:42;;;;;;;15.90;1.35;;;;;;;;;;5122616;27;20047;-75
2023/12/28 09:33:08;;;;;;;11.40;1.10;;;;;;;;;;5122469;27;20055;-73
2023/12/28 09:35:35;;;;;;;15.90;1.48;;;;;;;;;;5157909;27;20042;-73
2023/12/28 09:38:01;;;;;;;;;;;;;;;;;;5123381;27;20066;-72
2023/12/28 09:40:28;;;;;;;15.85;1.80;;;;;;;;;;5122501;27;20025;-73
2023/12/28 09:43:13;;;;;;;15.60;1.27;;;;;;;;;;5105677;27;20047;-74
2023/12/28 09:45:39;;;;;;;11.98;1.50;;;;;;;;;;5140064;27;20042;-73
2023/12/28 09:48:06;;;;;;;16.17;1.73;;;;;;;;;;5139212;27;20059;-75
2023/12/28 09:50:32;;;;;;;;;;;;;;;;;;5158015;27;20054;-73
2023/12/28 09:52:58;;;;;;;17.70;2.17;;;;;;;;;;5139252;27;19930;-75
2023/12/28 09:55:25;;;;;;;16.55;1.38;;;;;;;;;;5121519;27;20054;-74
2023/12/28 09:57:55;;;;;;;15.35;2.55;;;;;;;;;;5139485;27;20134;-76
2023/12/28 10:00:21;;;;;;;8.95;1.45;;;;;;;;;;5139615;27;20046;-72
2023/12/28 10:02:47;;;;;;;14.75;1.88;;;;;;;;;;5139811;27;20087;-72
2023/12/28 10:05:14;;;;;;;17.05;2.83;;;;;;;;;;5138889;27;20050;-74
2023/12/28 10:07:42;;;;;;;17.80;2.03;;;;;;;;;;5105663;27;20053;-72
2023/12/28 10:10:09;;;;;;;11.85;1.42;;;;;;;;;;5122521;27;20137;-75
2023/12/28 10:12:35;;;;;;;16.15;1.58;;;;;;;;;;5122969;27;20054;-75
2023/12/28 10:15:01;;;;;;;15.82;1.85;;;;;;;;;;5139792;27;20047;-73
2023/12/28 10:17:27;;;;;;;14.93;2.10;;;;;;;;;;5139586;27;20054;-71
2023/12/28 10:19:55;;;;;;;12.55;1.20;;;;;;;;;;5157604;27;20150;-73
2023/12/28 10:22:21;;;;;;;9.73;1.08;;;;;;;;;;5157589;27;20046;-73
2023/12/28 10:24:47;;;;;;;17.15;1.73;;;;;;;;;;5138893;27;20099;-73
2023/12/28 10:27:16;;;;;;;15.48;1.83;;;;;;;;;;5122209;27;20039;-72
2023/12/28 10:29:43;;;;;;;14.43;1.35;;;;;;;;;;5138516;27;20082;-73
2023/12/28 10:32:09;;;;;;;20.67;2.00;;;;;;;;;;5139300;27;20184;-74
2023/12/28 10:34:35;;;;;;;11.20;1.98;;;;;;;;;;5121112;27;20130;-74
2023/12/28 10:37:02;;;;;;;18.35;1.67;;;;;;;;;;5139234;27;20067;-72
2023/12/28 10:39:32;;;;;;;18.75;2.25;;;;;;;;;;5122210;27;20038;-75
2023/12/28 10:42:00;;;;;;;13.45;1.63;;;;;;;;;;5121441;27;20046;-73
2023/12/28 10:44:28;;;;;;;17.30;1.80;;;;;;;;;;5121928;27;20483;-74
2023/12/28 10:46:57;;;;;;;15.48;1.63;;;;;;;;;;5121163;27;20130;-73
2023/12/28 10:49:24;;;;;;;14.00;2.28;;;;;;;;;;5138174;27;20043;-73
2023/12/28 10:51:52;;;;;;;12.30;1.17;;;;;;;;;;5137855;27;20043;-74
2023/12/28 10:54:45;;;;;;;16.02;1.30;;;;;;;;;;5120909;27;20406;-74
2023/12/28 10:57:27;;;;;;;9.93;1.10;;;;;;;;;;5133067;27;20054;-73
2023/12/28 11:00:09;;;;;;;20.15;2.10;;;;;;;;;;5120752;27;20050;-73
2023/12/28 11:02:40;;;;;;;15.10;1.67;;;;;;;;;;5138607;27;20050;-73
2023/12/28 11:05:06;;;;;;;16.00;1.60;;;;;;;;;;5136877;27;20046;-74
2023/12/28 11:07:33;;;;;;;12.60;1.20;;;;;;;;;;5120643;27;20055;-74
2023/12/28 11:10:04;;;;;;;15.90;1.63;;;;;;;;;;5137588;27;20158;-74
2023/12/28 11:12:31;;;;;;;14.13;1.10;;;;;;;;;;5136918;27;20076;-74
2023/12/28 11:14:57;;;;;;;10.03;1.10;;;;;;;;;;5121677;27;20047;-73
2023/12/28 11:17:26;;;;;;;18.08;1.35;;;;;;;;;;5156467;27;20316;-73
2023/12/28 11:19:54;;;;;;;10.00;2.03;;;;;;;;;;5156300;27;20043;-74
2023/12/28 11:22:21;;;;;;;15.13;1.33;;;;;;;;;;5120457;27;20039;-74
2023/12/28 11:24:47;;;;;;;11.68;1.33;;;;;;;;;;5137440;27;20382;-74
2023/12/28 11:27:13;;;;;;;15.30;1.25;;;;;;;;;;5137603;27;20042;-72
2023/12/28 11:29:39;;;;;;;12.90;1.50;;;;;;;;;;5137190;27;20046;-74
2023/12/28 11:32:05;;;;;;;12.93;1.53;;;;;;;;;;5155872;27;20045;-73
2023/12/28 11:34:35;;;;;;;10.73;1.13;;;;;;;;;;5137967;27;20288;-74
2023/12/28 11:37:05;;;;;;;7.38;1.02;;;;;;;;;;5137254;27;20121;-74
2023/12/28 11:39:35;;;;;;;16.58;1.73;;;;;;;;;;5156727;27;20054;-75
2023/12/28 11:42:05;;;;;;;14.57;1.30;;;;;;;;;;5155550;27;20078;-72
2023/12/28 11:44:32;;;;;;;15.70;1.73;;;;;;;;;;5155345;27;20073;-76
2023/12/28 11:46:58;;;;;;;22.80;1.70;;;;;;;;;;5155482;27;20049;-73
2023/12/28 11:49:30;;;;;;;13.88;2.72;;;;;;;;;;5137580;27;20062;-72
2023/12/28 11:51:57;;;;;;;11.68;1.42;;;;;;;;;;5119796;27;20114;-73
2023/12/28 11:54:24;;;;;;;16.75;1.85;;;;;;;;;;5120079;27;20470;-71
2023/12/28 11:56:51;;;;;;;13.13;1.50;;;;;;;;;;5154868;27;20065;-72
2023/12/28 11:59:17;;;;;;;18.03;1.60;;;;;;;;;;5137419;27;20046;-73
2023/12/28 12:01:43;;;;;;;15.63;1.75;;;;;;;;;;5119289;27;20148;-72
2023/12/28 12:04:09;;;;;;;13.30;1.80;;;;;;;;;;5154676;27;20112;-73
2023/12/28 12:06:36;;;;;;;15.43;1.42;;;;;;;;;;5119445;27;20078;-74
2023/12/28 12:09:02;;;;;;;16.08;1.50;;;;;;;;;;5136944;27;20051;-73
2023/12/28 12:11:28;;;;;;;17.52;1.40;;;;;;;;;;5155840;27;20447;-73
2023/12/28 12:13:55;;;;;;;14.15;1.83;;;;;;;;;;5154645;27;20478;-74
2023/12/28 12:16:21;;;;;;;15.80;1.30;;;;;;;;;;5118167;27;20122;-73
2023/12/28 12:18:47;;;;;;;15.18;1.90;;;;;;;;;;5119258;27;20047;-74
2023/12/28 12:21:13;;;;;;;13.10;1.60;;;;;;;;;;5136249;27;20087;-72
2023/12/28 12:23:40;;;;;;;17.33;1.63;;;;;;;;;;5119225;27;20055;-72
2023/12/28 12:26:06;;;;;;;15.63;1.58;;;;;;;;;;5154442;27;20486;-73
2023/12/28 12:28:32;;;;;;;15.82;1.80;;;;;;;;;;5119215;27;20509;-71
2023/12/28 12:31:01;;;;;;;17.65;2.50;;;;;;;;;;5136016;27;20114;-74
2023/12/28 12:33:27;;;;;;;13.80;1.17;;;;;;;;;;5135918;27;20478;-74
2023/12/28 12:35:54;;;;;;;15.05;1.65;;;;;;;;;;5137140;27;20047;-72
2023/12/28 12:38:20;;;;;;;22.38;2.47;;;;;;;;;;5154981;27;20085;-73
2023/12/28 12:40:46;;;;;;;14.07;1.10;;;;;;;;;;5119199;27;20078;-73
2023/12/28 12:43:12;;;;;;;13.52;1.92;;;;;;;;;;5120165;27;20510;-73
2023/12/28 12:45:39;;;;;;;16.95;2.30;;;;;;;;;;5136786;27;20054;-72
2023/12/28 12:48:05;;;;;;;15.32;1.80;;;;;;;;;;5136840;27;20050;-73
2023/12/28 12:50:35;;;;;;;26.10;2.10;;;;;;;;;;5135907;27;20531;-73
2023/12/28 12:53:01;;;;;;;16.13;2.15;;;;;;;;;;5119033;27;20142;-72
2023/12/28 12:55:28;;;;;;;16.05;1.70;;;;;;;;;;5154466;27;20043;-72
2023/12/28 12:57:55;;;;;;;14.18;1.73;;;;;;;;;;5119829;27;20046;-73
2023/12/28 13:00:22;;;;;;;15.95;2.33;;;;;;;;;;5137158;27;20046;-73
2023/12/28 13:02:51;;;;;;;12.88;1.45;;;;;;;;;;5135938;27;20050;-72
2023/12/28 13:05:18;;;;;;;15.93;1.50;;;;;;;;;;5135275;27;20101;-72
2023/12/28 13:07:44;;;;;;;;;;;;;;;;;;5136325;27;20088;-75
2023/12/28 13:10:10;;;;;;;12.93;1.60;;;;;;;;;;5136185;27;20002;-73
2023/12/28 13:12:36;;;;;;;20.98;1.67;;;;;;;;;;5154237;27;20091;-72
2023/12/28 13:15:03;;;;;;;15.02;1.35;;;;;;;;;;5118575;27;20171;-72
2023/12/28 13:17:29;;;;;;;15.73;2.08;;;;;;;;;;5118580;27;20051;-73
2023/12/28 13:19:55;;;;;;;14.23;1.75;;;;;;;;;;5135842;27;20043;-73
2023/12/28 13:22:21;;;;;;;17.42;1.60;;;;;;;;;;5102107;27;20118;-73
2023/12/28 13:24:48;;;;;;;13.07;1.27;;;;;;;;;;5102637;27;20051;-73
2023/12/28 13:27:14;;;;;;;21.83;2.20;;;;;;;;;;5137711;27;20050;-74
2023/12/28 13:29:40;;;;;;;19.05;1.92;;;;;;;;;;5122497;27;20046;-73
2023/12/28 13:32:07;;;;;;;23.20;1.97;;;;;;;;;;5158055;27;20038;-71
2023/12/28 13:34:33;;;;;;;19.47;1.50;;;;;;;;;;5158458;27;20276;-71
2023/12/28 13:37:01;;;;;;;20.13;1.97;;;;;;;;;;5122415;27;20047;-73
2023/12/28 13:39:28;;;;;;;13.00;1.70;;;;;;;;;;5106283;27;20097;-74
2023/12/28 13:41:55;;;;;;;18.35;2.08;;;;;;;;;;5139827;27;20045;-73
2023/12/28 13:44:21;;;;;;;17.33;2.08;;;;;;;;;;5122904;27;20188;-72
2023/12/28 13:46:48;;;;;;;13.75;1.77;;;;;;;;;;5122575;27;20047;-72
2023/12/28 13:49:15;;;;;;;16.67;1.75;;;;;;;;;;5123150;27;20107;-73
2023/12/28 13:51:41;;;;;;;18.48;1.85;;;;;;;;;;5158168;27;20049;-73
2023/12/28 13:54:07;;;;;;;17.90;2.10;;;;;;;;;;5122088;27;20482;-73
2023/12/28 13:56:33;;;;;;;18.70;1.88;;;;;;;;;;5158133;27;20179;-73
2023/12/28 13:58:59;;;;;;;17.80;2.58;;;;;;;;;;5139552;27;20090;-73
2023/12/28 14:01:26;;;;;;;16.33;1.45;;;;;;;;;;5157874;27;20038;-72
2023/12/28 14:03:52;;;;;;;13.45;1.83;;;;;;;;;;5135771;27;20063;-73
2023/12/28 14:06:19;;;;;;;17.88;1.67;;;;;;;;;;5118978;27;20059;-75
2023/12/28 14:08:45;;;;;;;19.90;1.73;;;;;;;;;;5119011;27;20047;-74
2023/12/28 14:11:11;;;;;;;14.73;1.80;;;;;;;;;;5137780;27;20043;-72
2023/12/28 14:13:37;;;;;;;16.08;2.30;;;;;;;;;;5137053;27;20047;-73
2023/12/28 14:16:04;;;;;;;13.65;1.50;;;;;;;;;;5118496;27;20479;-74
2023/12/28 14:18:30;;;;;;;;;;;;;;;;;;5136253;27;20072;-73
2023/12/28 14:20:56;;;;;;;14.13;1.23;;;;;;;;;;5135875;27;19919;-76
2023/12/28 14:23:23;;;;;;;12.10;1.63;;;;;;;;;;5135736;27;20293;-74
2023/12/28 14:25:53;;;;;;;14.10;1.27;;;;;;;;;;5135678;27;20073;-72
2023/12/28 14:28:19;;;;;;;16.52;1.50;;;;;;;;;;5135260;27;20280;-73
2023/12/28 14:30:46;;;;;;;17.42;1.73;;;;;;;;;;5136832;27;20089;-72
2023/12/28 14:33:12;;;;;;;19.48;1.60;;;;;;;;;;5119394;27;20051;-73
2023/12/28 14:35:39;;;;;;;15.38;1.67;;;;;;;;;;5118575;27;20223;-74